VTSC

Details ICAO VTSC (NAW)
Name Narathiwat
Region Thailand
Timezone Asia/Bangkok (UTC+7.0)
Plans Departing 4
Arriving 8
Stats Elevation 18 ft / 5 m (AMSL)
Location 6.519922° 101.743402°
Runways 1
Magnetic Variation 0.164° W
Sunrise 2017-12-11 23:15:34 UTC / 2017-12-12 06:15:34 Local
Sunset 2017-12-12 11:00:33 UTC / 2017-12-12 18:00:33 Local
Advertisement - Login to hide

Runways

ID Width Length Bearing (true) Bearing (mag) Surface Threshold Offset Overrun Length
02 148 ft / 45 m 6,605 ft / 2,013 m 23.31° 23.47° Asphalt 0 ft / 0 m 197 ft / 60 m
20 148 ft / 45 m 6,605 ft / 2,013 m 203.31° 203.47° Asphalt 0 ft / 0 m 197 ft / 60 m

Approach Navaids

Runway Type Ident Frequency Range Bearing (true) Bearing (mag) Slope Elevation
02 Localiser INTW 110.10 MHz 18 nm / 33 km 23.30° 23.47° - 18 ft / 5 m (AMSL)
02 Glidescope INTW 110.10 MHz 10 nm / 19 km 23.31° 23.48° 3.00° 18 ft / 5 m (AMSL)
02 DME INTW 110.10 MHz 18 nm / 33 km - - - 18 ft / 5 m (AMSL)

Map

Weather


0- 5 10 15 20 25 30 35+ Temperature / ° C

Clouds and Precipitation
Forecast for 2017-12-11 18:00 UTC. Updated 2 hours ago

Ground ~20,000 ft ~40,000 ft Winds

METAR

Not found

TAF

TAF VTSC 111100Z 1112/1212 19004KT 9999 FEW020 BECMG 1203/1205 05010KT

Frequencies

Tower 122.70 MHz TWR
Approach 125.55 MHz APP
Warning: Do not use this data for real-world aviation or navigation. No guarantee of current accuracy is given.